createdAt,value
2018-04-18T00:00:50.616Z,55.60
2018-04-18T00:03:18.200Z,55.60
2018-04-18T00:05:45.775Z,55.60
2018-04-18T00:08:13.570Z,55.60
2018-04-18T00:10:41.915Z,55.60
2018-04-18T00:13:09.755Z,55.60
2018-04-18T00:15:45.648Z,55.60
2018-04-18T00:18:13.233Z,55.60
2018-04-18T00:20:40.847Z,55.60
2018-04-18T00:23:08.428Z,55.60
2018-04-18T00:25:36.776Z,55.60
2018-04-18T00:28:04.356Z,55.60
2018-04-18T00:30:31.974Z,55.60
2018-04-18T00:32:59.556Z,56.10
2018-04-18T00:35:27.150Z,55.60
2018-04-18T00:37:55.508Z,55.60
2018-04-18T00:40:23.131Z,55.60
2018-04-18T00:42:50.726Z,56.30
2018-04-18T00:45:19.088Z,55.60
2018-04-18T00:47:46.682Z,55.60
2018-04-18T00:50:14.275Z,55.60
2018-04-18T00:52:41.856Z,55.60
2018-04-18T00:55:09.444Z,55.60
2018-04-18T00:57:37.795Z,55.60
2018-04-18T01:00:05.424Z,55.60
2018-04-18T01:02:33.005Z,55.60
2018-04-18T01:05:00.583Z,55.60
2018-04-18T01:07:28.198Z,55.60
2018-04-18T01:09:55.794Z,55.60
2018-04-18T01:12:23.381Z,55.50
2018-04-18T01:14:51.727Z,55.60
2018-04-18T01:17:19.315Z,55.60
2018-04-18T01:19:47.659Z,55.60
2018-04-18T01:22:15.260Z,55.60
2018-04-18T01:24:42.840Z,55.60
2018-04-18T01:27:10.471Z,55.60
2018-04-18T01:29:38.864Z,55.60
2018-04-18T01:32:06.445Z,55.60
2018-04-18T01:34:34.037Z,55.50
2018-04-18T01:37:01.623Z,55.60
2018-04-18T01:39:30.012Z,55.60
2018-04-18T01:41:57.628Z,55.60
2018-04-18T01:44:25.294Z,56.20
2018-04-18T01:46:52.861Z,55.60
2018-04-18T01:49:21.973Z,55.60
2018-04-18T01:51:49.563Z,55.60
2018-04-18T01:54:17.144Z,55.60
2018-04-18T01:56:44.737Z,55.60
2018-04-18T01:59:13.096Z,55.60
2018-04-18T02:01:46.372Z,55.60
2018-04-18T02:04:13.955Z,55.50
2018-04-18T02:06:42.311Z,55.60
2018-04-18T02:09:09.904Z,55.60
2018-04-18T02:11:38.281Z,55.60
2018-04-18T02:14:05.867Z,55.50
2018-04-18T02:16:33.461Z,55.50
2018-04-18T02:19:01.044Z,55.60
2018-04-18T02:21:29.411Z,55.60
2018-04-18T02:23:57.039Z,55.50
2018-04-18T02:26:24.632Z,55.60
2018-04-18T02:28:53.046Z,55.50
2018-04-18T02:31:20.658Z,55.50
2018-04-18T02:33:48.281Z,55.50
2018-04-18T02:36:15.926Z,55.50
2018-04-18T02:38:43.512Z,55.50
2018-04-18T02:41:11.143Z,55.50
2018-04-18T02:43:38.728Z,55.50
2018-04-18T02:46:06.312Z,55.50
2018-04-18T02:48:33.921Z,55.50
2018-04-18T02:51:01.535Z,55.50
2018-04-18T02:53:29.888Z,55.50
2018-04-18T02:55:57.513Z,55.50
2018-04-18T02:58:25.103Z,55.50
2018-04-18T03:00:52.693Z,55.50
2018-04-18T03:03:21.080Z,55.50
2018-04-18T03:05:49.428Z,55.50
2018-04-18T03:08:17.016Z,55.50
2018-04-18T03:10:45.402Z,55.50
2018-04-18T03:13:13.790Z,55.50
2018-04-18T03:15:41.376Z,55.50
2018-04-18T03:18:08.959Z,55.50
2018-04-18T03:20:36.635Z,55.50
2018-04-18T03:23:04.979Z,55.50
2018-04-18T03:25:32.605Z,55.50
2018-04-18T03:28:00.194Z,55.50
2018-04-18T03:30:27.784Z,55.50
2018-04-18T03:32:56.145Z,55.50
2018-04-18T03:35:23.778Z,55.50
2018-04-18T03:37:51.359Z,55.50
2018-04-18T03:40:18.987Z,55.50
2018-04-18T03:42:46.567Z,55.50
2018-04-18T03:45:14.155Z,55.50
2018-04-18T03:47:42.540Z,55.50
2018-04-18T03:50:10.892Z,55.50
2018-04-18T03:52:38.472Z,55.50
2018-04-18T03:55:17.227Z,55.50
2018-04-18T03:57:44.816Z,55.50
2018-04-18T04:00:12.411Z,56.10
2018-04-18T04:02:40.855Z,55.50
2018-04-18T04:05:08.444Z,55.50
2018-04-18T04:07:36.793Z,55.50
2018-04-18T04:10:04.444Z,55.50
2018-04-18T04:12:32.040Z,55.50
2018-04-18T04:15:00.473Z,55.60
2018-04-18T04:17:50.931Z,55.60
2018-04-18T04:20:30.283Z,55.60
2018-04-18T04:23:09.744Z,55.60
2018-04-18T04:25:37.333Z,55.60
2018-04-18T04:28:05.700Z,55.60
2018-04-18T04:30:34.064Z,55.60
2018-04-18T04:33:01.668Z,55.60
2018-04-18T04:35:29.284Z,55.80
2018-04-18T04:37:56.935Z,55.60
2018-04-18T04:40:24.528Z,55.60
2018-04-18T04:42:52.875Z,55.70
2018-04-18T04:45:20.463Z,55.60
2018-04-18T04:47:48.813Z,55.60
2018-04-18T04:50:16.403Z,55.60
2018-04-18T04:52:44.760Z,55.60
2018-04-18T04:55:12.348Z,55.60
2018-04-18T04:57:39.928Z,55.70
2018-04-18T05:00:07.510Z,55.70
2018-04-18T05:02:43.775Z,55.70
2018-04-18T05:05:11.402Z,55.70
2018-04-18T05:07:39.070Z,55.80
2018-04-18T05:10:06.657Z,55.70
2018-04-18T05:12:34.243Z,55.80
2018-04-18T05:15:02.600Z,55.80
2018-04-18T05:17:30.185Z,55.80
2018-04-18T05:19:58.535Z,55.70
2018-04-18T05:22:26.119Z,55.70
2018-04-18T05:24:54.467Z,55.50
2018-04-18T05:27:22.055Z,55.50
2018-04-18T05:29:50.439Z,55.70
2018-04-18T05:32:18.037Z,55.70
2018-04-18T05:34:45.623Z,55.80
2018-04-18T05:38:26.192Z,56.50
2018-04-18T05:40:53.777Z,56.50
2018-04-18T05:43:22.126Z,56.80
2018-04-18T05:48:08.424Z,57.30
2018-04-18T05:50:36.007Z,56.90
2018-04-18T05:53:04.389Z,56.90
2018-04-18T05:55:32.744Z,57.00
2018-04-18T05:58:00.333Z,57.00
2018-04-18T06:00:27.952Z,57.00
2018-04-18T06:02:55.547Z,56.60
2018-04-18T06:05:23.898Z,56.90
2018-04-18T06:07:51.488Z,56.90
2018-04-18T06:10:19.077Z,57.40
2018-04-18T06:12:46.737Z,56.60
2018-04-18T06:15:14.320Z,57.20
2018-04-18T06:17:41.908Z,57.00
2018-04-18T06:20:10.277Z,56.70
2018-04-18T06:22:38.683Z,56.50
2018-04-18T06:25:06.280Z,56.50
2018-04-18T06:27:33.898Z,56.50
2018-04-18T06:30:01.491Z,56.90
2018-04-18T06:32:29.076Z,56.80
2018-04-18T06:34:56.669Z,56.50
2018-04-18T06:37:24.256Z,56.90
2018-04-18T06:39:51.839Z,57.30
2018-04-18T06:42:19.419Z,57.30
2018-04-18T06:44:47.771Z,56.70
2018-04-18T06:47:15.359Z,56.70
2018-04-18T06:49:43.708Z,57.10
2018-04-18T06:52:11.291Z,57.00
2018-04-18T06:54:39.639Z,56.90
2018-04-18T06:57:07.283Z,56.90
2018-04-18T06:59:34.872Z,56.80
2018-04-18T07:02:02.455Z,56.60
2018-04-18T07:04:30.804Z,56.70
2018-04-18T07:06:58.388Z,56.70
2018-04-18T07:09:26.740Z,56.70
2018-04-18T07:11:54.331Z,56.70
2018-04-18T07:14:21.959Z,56.60
2018-04-18T07:16:49.559Z,56.70
2018-04-18T07:19:17.172Z,56.80
2018-04-18T07:21:44.768Z,56.50
2018-04-18T07:24:12.361Z,56.60
2018-04-18T07:26:39.947Z,56.70
2018-04-18T07:29:07.571Z,56.70
2018-04-18T07:31:35.220Z,56.60
2018-04-18T07:34:02.810Z,56.50
2018-04-18T07:36:30.392Z,56.40
2018-04-18T07:38:58.145Z,56.50
2018-04-18T07:41:25.760Z,56.30
2018-04-18T07:43:53.345Z,56.40
2018-04-18T07:46:21.057Z,56.20
2018-04-18T07:48:48.711Z,56.30
2018-04-18T07:51:16.308Z,56.40
2018-04-18T07:53:43.915Z,56.30
2018-04-18T07:56:11.573Z,56.20
2018-04-18T07:58:39.998Z,56.20
2018-04-18T08:01:07.620Z,56.20
2018-04-18T08:03:35.976Z,56.20
2018-04-18T08:06:03.636Z,56.20
2018-04-18T08:08:31.373Z,56.20
2018-04-18T08:10:59.023Z,56.20
2018-04-18T08:13:26.604Z,56.20
2018-04-18T08:15:54.184Z,56.20
2018-04-18T08:18:22.540Z,56.20
2018-04-18T08:20:50.148Z,56.20
2018-04-18T08:23:17.795Z,56.00
2018-04-18T08:25:46.147Z,56.10
2018-04-18T08:28:13.743Z,56.10
2018-04-18T08:30:41.345Z,56.10
2018-04-18T08:33:08.924Z,56.10
2018-04-18T08:35:36.511Z,56.00
2018-04-18T08:38:04.098Z,56.00
2018-04-18T08:40:31.792Z,56.00
2018-04-18T08:42:59.500Z,56.00
2018-04-18T08:45:27.215Z,56.00
2018-04-18T08:47:54.806Z,56.00
2018-04-18T08:50:22.420Z,56.00
2018-04-18T08:52:50.066Z,56.00
2018-04-18T08:55:17.684Z,56.00
2018-04-18T08:57:45.314Z,56.00
2018-04-18T09:00:12.957Z,56.00
2018-04-18T09:02:40.642Z,56.00
2018-04-18T09:05:09.076Z,56.00
2018-04-18T09:07:36.660Z,56.00
2018-04-18T09:10:04.269Z,56.00
2018-04-18T09:12:31.860Z,56.00
2018-04-18T09:14:59.445Z,56.00
2018-04-18T09:17:27.099Z,56.00
2018-04-18T09:19:54.746Z,56.00
2018-04-18T09:22:22.387Z,56.00
2018-04-18T09:24:50.006Z,56.10
2018-04-18T09:27:17.591Z,55.90
2018-04-18T09:29:45.176Z,56.00
2018-04-18T09:32:12.802Z,56.00
2018-04-18T09:34:40.408Z,56.00
2018-04-18T09:37:08.038Z,56.00
2018-04-18T09:39:35.981Z,55.90
2018-04-18T09:42:03.574Z,56.00
2018-04-18T09:44:31.192Z,56.00
2018-04-18T09:46:58.840Z,56.10
2018-04-18T09:49:27.197Z,56.00
2018-04-18T09:51:54.816Z,56.00
2018-04-18T09:54:22.445Z,56.00
2018-04-18T09:56:50.080Z,56.00
2018-04-18T09:59:18.439Z,56.10
2018-04-18T10:01:46.073Z,56.10
2018-04-18T10:04:13.728Z,56.00
2018-04-18T10:06:41.402Z,56.10
2018-04-18T10:09:08.993Z,56.00
2018-04-18T10:11:36.759Z,56.00
2018-04-18T10:14:05.194Z,56.10
2018-04-18T10:16:32.781Z,56.10
2018-04-18T10:19:00.488Z,56.00
2018-04-18T10:21:28.232Z,56.00
2018-04-18T10:23:55.888Z,56.00
2018-04-18T10:26:24.248Z,56.00
2018-04-18T10:28:51.908Z,55.90
2018-04-18T10:31:19.517Z,56.00
2018-04-18T10:33:47.109Z,56.00
2018-04-18T10:36:14.747Z,56.00
2018-04-18T10:38:42.371Z,56.00
2018-04-18T10:41:10.016Z,56.00
2018-04-18T10:43:37.793Z,56.00
2018-04-18T10:46:05.404Z,55.90
2018-04-18T10:48:33.073Z,56.00
2018-04-18T10:51:00.700Z,55.90
2018-04-18T10:53:28.294Z,56.00
2018-04-18T10:55:55.955Z,55.90
2018-04-18T10:58:23.552Z,56.00
2018-04-18T11:00:51.240Z,55.90
2018-04-18T11:03:18.864Z,56.00
2018-04-18T11:05:46.504Z,56.00
2018-04-18T11:08:14.856Z,56.00
2018-04-18T11:10:42.493Z,56.00
2018-04-18T11:13:10.082Z,56.00
2018-04-18T11:15:37.668Z,55.90
2018-04-18T11:18:06.069Z,56.00
2018-04-18T11:20:33.655Z,56.00
2018-04-18T11:23:01.305Z,55.90
2018-04-18T11:25:28.933Z,56.00
2018-04-18T11:27:56.555Z,55.90
2018-04-18T11:30:24.159Z,55.90
2018-04-18T11:32:51.787Z,55.90
2018-04-18T11:35:20.193Z,55.90
2018-04-18T11:37:47.817Z,55.90
2018-04-18T11:40:15.435Z,55.90
2018-04-18T11:42:43.073Z,55.90
2018-04-18T11:45:10.656Z,55.90
2018-04-18T11:47:38.280Z,55.90
2018-04-18T11:50:05.979Z,55.90
2018-04-18T11:52:33.607Z,55.90
2018-04-18T11:55:01.224Z,55.90
2018-04-18T11:57:28.844Z,55.80
2018-04-18T11:59:56.428Z,55.90
2018-04-18T12:02:24.018Z,55.90
2018-04-18T12:04:52.371Z,55.90
2018-04-18T12:07:19.996Z,55.90
2018-04-18T12:09:47.616Z,55.80
2018-04-18T12:12:15.967Z,55.90
2018-04-18T12:14:43.596Z,55.90
2018-04-18T12:17:11.255Z,55.90
2018-04-18T12:19:38.840Z,55.90
2018-04-18T12:22:06.464Z,55.90
2018-04-18T12:24:34.051Z,55.90
2018-04-18T12:27:01.676Z,55.80
2018-04-18T12:29:29.255Z,55.80
2018-04-18T12:31:56.884Z,55.80
2018-04-18T12:34:24.474Z,55.90
2018-04-18T12:36:52.100Z,55.90
2018-04-18T12:39:19.736Z,55.90
2018-04-18T12:41:48.085Z,55.90
2018-04-18T12:44:15.716Z,55.80
2018-04-18T12:46:43.300Z,55.80
2018-04-18T12:49:11.685Z,55.90
2018-04-18T12:51:39.271Z,56.20
2018-04-18T12:54:07.669Z,55.80
2018-04-18T12:56:35.256Z,55.80
2018-04-18T12:59:02.892Z,55.90
2018-04-18T13:01:30.530Z,55.90
2018-04-18T13:03:58.876Z,55.80
2018-04-18T13:06:26.533Z,55.80
2018-04-18T13:08:54.114Z,55.90
2018-04-18T13:11:22.534Z,55.90
2018-04-18T13:13:50.128Z,55.80
2018-04-18T13:16:17.748Z,55.90
2018-04-18T13:18:45.411Z,55.90
2018-04-18T13:21:12.997Z,55.90
2018-04-18T13:23:40.633Z,55.90
2018-04-18T13:26:08.235Z,55.80
2018-04-18T13:28:35.820Z,55.80
2018-04-18T13:31:03.449Z,55.90
2018-04-18T13:33:31.032Z,55.90
2018-04-18T13:35:58.663Z,55.90
2018-04-18T13:38:26.280Z,55.80
2018-04-18T13:40:53.903Z,55.80
2018-04-18T13:43:22.287Z,55.90
2018-04-18T13:45:49.911Z,56.50
2018-04-18T13:48:17.507Z,55.80
2018-04-18T13:50:45.140Z,55.80
2018-04-18T13:53:13.553Z,55.80
2018-04-18T13:55:41.241Z,55.80
2018-04-18T13:58:09.696Z,55.60
2018-04-18T14:00:37.340Z,55.80
2018-04-18T14:03:05.029Z,55.70
2018-04-18T14:05:32.619Z,55.70
2018-04-18T14:08:00.305Z,55.70
2018-04-18T14:10:28.659Z,55.70
2018-04-18T14:12:57.044Z,55.60
2018-04-18T14:15:24.669Z,55.60
2018-04-18T14:17:52.293Z,55.60
2018-04-18T14:20:19.881Z,55.40
2018-04-18T14:22:47.564Z,55.30
2018-04-18T14:25:15.147Z,55.20
2018-04-18T14:27:42.800Z,55.10
2018-04-18T14:30:10.428Z,55.00
2018-04-18T14:32:38.017Z,55.10
2018-04-18T14:35:05.644Z,54.70
2018-04-18T14:37:33.224Z,55.00
2018-04-18T14:40:00.889Z,54.50
2018-04-18T14:42:28.520Z,54.30
2018-04-18T14:44:56.966Z,54.10
2018-04-18T14:47:24.600Z,54.10
2018-04-18T14:49:52.968Z,53.90
2018-04-18T14:52:21.351Z,53.80
2018-04-18T14:54:49.768Z,53.70
2018-04-18T14:57:17.353Z,53.70
2018-04-18T14:59:44.981Z,53.60
2018-04-18T15:02:12.603Z,53.50
2018-04-18T15:04:41.072Z,53.00
2018-04-18T15:07:08.716Z,52.80
2018-04-18T15:09:37.079Z,53.00
2018-04-18T15:12:04.700Z,53.00
2018-04-18T15:14:32.289Z,52.90
2018-04-18T15:16:59.921Z,52.90
2018-04-18T15:19:27.565Z,53.00
2018-04-18T15:21:56.011Z,52.90
2018-04-18T15:24:23.627Z,52.90
2018-04-18T15:26:51.204Z,52.80
2018-04-18T15:29:18.837Z,52.80
2018-04-18T15:31:46.464Z,52.80
2018-04-18T15:34:14.045Z,52.70
2018-04-18T15:36:42.429Z,52.60
2018-04-18T15:39:10.009Z,52.60
2018-04-18T15:41:37.636Z,52.80
2018-04-18T15:44:05.985Z,52.80
2018-04-18T15:46:33.630Z,52.80
2018-04-18T15:49:01.220Z,52.70
2018-04-18T15:51:29.569Z,52.70
2018-04-18T15:53:57.227Z,52.70
2018-04-18T15:56:24.850Z,52.60
2018-04-18T15:58:52.455Z,52.60
2018-04-18T16:01:20.044Z,52.60
2018-04-18T16:03:48.452Z,52.50
2018-04-18T16:06:16.083Z,52.50
2018-04-18T16:08:43.711Z,52.40
2018-04-18T16:11:11.308Z,52.50
2018-04-18T16:13:38.939Z,53.00
2018-04-18T16:16:07.357Z,52.30
2018-04-18T16:18:34.965Z,52.30
2018-04-18T16:21:02.535Z,52.40
2018-04-18T16:23:30.945Z,52.30
2018-04-18T16:25:58.559Z,52.30
2018-04-18T16:28:26.176Z,52.20
2018-04-18T16:30:53.796Z,52.00
2018-04-18T16:33:22.255Z,52.00
2018-04-18T16:35:49.867Z,52.00
2018-04-18T16:38:17.521Z,52.00
2018-04-18T16:40:45.126Z,52.00
2018-04-18T16:43:12.757Z,52.00
2018-04-18T16:45:40.351Z,51.90
2018-04-18T16:48:08.017Z,51.90
2018-04-18T16:50:35.693Z,51.80
2018-04-18T16:53:03.260Z,51.40
2018-04-18T16:55:30.851Z,51.80
2018-04-18T16:57:58.432Z,51.70
2018-04-18T17:00:26.112Z,51.50
2018-04-18T17:02:53.692Z,51.70
2018-04-18T17:05:22.085Z,51.70
2018-04-18T17:07:49.792Z,51.60
2018-04-18T17:10:17.396Z,51.70
2018-04-18T17:12:45.078Z,51.80
2018-04-18T17:15:12.717Z,51.70
2018-04-18T17:17:40.348Z,51.80
2018-04-18T17:20:07.968Z,51.80
2018-04-18T17:22:35.592Z,51.70
2018-04-18T17:25:03.209Z,51.70
2018-04-18T17:27:30.849Z,51.90
2018-04-18T17:29:58.441Z,51.90
2018-04-18T17:32:26.076Z,51.90
2018-04-18T17:34:53.741Z,52.00
2018-04-18T17:37:21.489Z,51.90
2018-04-18T17:39:49.151Z,51.90
2018-04-18T17:42:16.979Z,52.00
2018-04-18T17:44:44.604Z,52.00
2018-04-18T17:47:12.198Z,52.00
2018-04-18T17:49:39.849Z,52.70
2018-04-18T17:52:07.432Z,52.10
2018-04-18T17:54:35.080Z,52.10
2018-04-18T17:57:02.720Z,52.10
2018-04-18T17:59:30.352Z,52.10
2018-04-18T18:01:57.975Z,52.10
2018-04-18T18:04:25.558Z,52.20
2018-04-18T18:06:53.185Z,52.10
2018-04-18T18:09:20.832Z,52.20
2018-04-18T18:11:48.421Z,52.10
2018-04-18T18:14:16.048Z,52.10
2018-04-18T18:16:43.707Z,52.10
2018-04-18T18:19:12.145Z,52.10
2018-04-18T18:21:39.771Z,52.10
2018-04-18T18:24:07.405Z,52.10
2018-04-18T18:26:35.040Z,52.10
2018-04-18T18:29:03.405Z,52.10
2018-04-18T18:31:31.260Z,52.10
2018-04-18T18:33:59.636Z,52.10
2018-04-18T18:36:27.325Z,52.00
2018-04-18T18:38:55.748Z,52.10
2018-04-18T18:41:23.340Z,52.10
2018-04-18T18:43:51.060Z,52.00
2018-04-18T18:46:18.701Z,52.70
2018-04-18T18:48:46.329Z,52.10
2018-04-18T18:51:14.724Z,52.10
2018-04-18T18:53:42.377Z,52.00
2018-04-18T18:56:10.728Z,51.90
2018-04-18T18:58:38.351Z,51.90
2018-04-18T19:01:05.939Z,51.90
2018-04-18T19:03:33.524Z,52.10
2018-04-18T19:06:01.890Z,52.00
2018-04-18T19:08:30.289Z,52.00
2018-04-18T19:10:57.922Z,52.00
2018-04-18T19:13:25.566Z,51.80
2018-04-18T19:15:53.156Z,51.70
2018-04-18T19:18:21.560Z,51.40
2018-04-18T19:20:49.156Z,51.40
2018-04-18T19:23:16.756Z,51.60
2018-04-18T19:25:45.163Z,51.60
2018-04-18T19:28:13.557Z,51.50
2018-04-18T19:30:41.374Z,51.50
2018-04-18T19:33:09.013Z,51.70
2018-04-18T19:35:36.615Z,51.50
2018-04-18T19:38:04.303Z,51.40
2018-04-18T19:40:32.023Z,51.30
2018-04-18T19:42:59.709Z,50.90
2018-04-18T19:45:27.356Z,51.10
2018-04-18T19:47:54.989Z,51.30
2018-04-18T19:50:23.548Z,51.10
2018-04-18T19:52:52.048Z,51.60
2018-04-18T19:55:19.724Z,51.60
2018-04-18T19:57:47.323Z,51.60
2018-04-18T20:00:14.990Z,51.70
2018-04-18T20:02:42.703Z,51.80
2018-04-18T20:05:10.449Z,51.90
2018-04-18T20:07:38.111Z,51.70
2018-04-18T20:10:06.516Z,51.80
2018-04-18T20:12:34.280Z,51.80
2018-04-18T20:15:01.921Z,51.70
2018-04-18T20:17:29.588Z,51.80
2018-04-18T20:19:57.171Z,51.80
2018-04-18T20:22:24.869Z,51.90
2018-04-18T20:24:52.629Z,51.70
2018-04-18T20:27:20.303Z,51.80
2018-04-18T20:29:48.692Z,51.90
2018-04-18T20:32:17.039Z,51.90
2018-04-18T20:34:44.749Z,51.90
2018-04-18T20:37:12.598Z,51.80
2018-04-18T20:39:40.232Z,51.90
2018-04-18T20:42:07.853Z,51.90
2018-04-18T20:44:35.480Z,51.90
2018-04-18T20:47:03.114Z,51.90
2018-04-18T20:49:31.488Z,52.00
2018-04-18T20:52:00.112Z,51.90
2018-04-18T20:54:28.666Z,51.90
2018-04-18T20:56:56.267Z,52.00
2018-04-18T20:59:24.711Z,52.00
2018-04-18T21:01:52.387Z,52.00
2018-04-18T21:04:20.321Z,52.00
2018-04-18T21:06:48.912Z,52.20
2018-04-18T21:09:16.565Z,52.20
2018-04-18T21:11:44.172Z,52.00
2018-04-18T21:14:11.801Z,52.70
2018-04-18T21:16:39.644Z,52.10
2018-04-18T21:19:08.212Z,52.20
2018-04-18T21:21:36.602Z,52.10
2018-04-18T21:24:05.001Z,52.10
2018-04-18T21:26:32.655Z,52.10
2018-04-18T21:29:01.129Z,52.20
2018-04-18T21:31:29.699Z,52.30
2018-04-18T21:33:58.289Z,52.20
2018-04-18T21:36:25.972Z,52.20
2018-04-18T21:38:53.611Z,52.20
2018-04-18T21:41:22.115Z,52.20
2018-04-18T21:43:49.767Z,52.20
2018-04-18T21:46:17.348Z,52.20
2018-04-18T21:48:44.931Z,52.30
2018-04-18T21:51:12.522Z,52.30
2018-04-18T21:53:40.919Z,52.30
2018-04-18T21:56:08.511Z,52.30
2018-04-18T21:58:36.208Z,52.40
2018-04-18T22:01:04.593Z,52.30
2018-04-18T22:03:32.998Z,52.40
2018-04-18T22:06:00.615Z,52.40
2018-04-18T22:08:29.015Z,52.40
2018-04-18T22:10:56.602Z,52.30
2018-04-18T22:13:24.223Z,52.40
2018-04-18T22:15:52.619Z,52.40
2018-04-18T22:18:20.203Z,52.40
2018-04-18T22:20:47.831Z,52.50
2018-04-18T22:23:15.415Z,52.40
2018-04-18T22:25:43.036Z,52.40
2018-04-18T22:28:11.388Z,52.50
2018-04-18T22:30:39.044Z,52.50
2018-04-18T22:33:06.630Z,52.50
2018-04-18T22:35:35.012Z,52.60
2018-04-18T22:38:03.360Z,52.60
2018-04-18T22:40:30.988Z,52.60
2018-04-18T22:42:58.568Z,52.50
2018-04-18T22:45:26.259Z,52.60
2018-04-18T22:47:54.633Z,52.50
2018-04-18T22:50:23.021Z,52.60
2018-04-18T22:52:51.368Z,52.60
2018-04-18T22:55:19.014Z,52.60
2018-04-18T22:57:46.596Z,52.60
2018-04-18T23:00:21.740Z,52.70
2018-04-18T23:02:50.093Z,52.60
2018-04-18T23:05:17.713Z,52.60
2018-04-18T23:07:45.302Z,52.60
2018-04-18T23:10:12.919Z,52.60
2018-04-18T23:12:40.499Z,52.60
2018-04-18T23:15:08.131Z,52.60
2018-04-18T23:17:35.712Z,52.60
2018-04-18T23:20:03.336Z,52.60
2018-04-18T23:22:34.007Z,52.60
2018-04-18T23:25:01.594Z,52.70
2018-04-18T23:27:29.795Z,52.70
2018-04-18T23:29:58.143Z,52.70
2018-04-18T23:32:25.760Z,52.70
2018-04-18T23:34:53.337Z,52.70
2018-04-18T23:37:20.925Z,52.70
2018-04-18T23:39:48.549Z,52.70
2018-04-18T23:42:16.172Z,52.70
2018-04-18T23:44:43.831Z,52.70
2018-04-18T23:47:11.496Z,52.70
2018-04-18T23:49:39.121Z,52.80
2018-04-18T23:52:06.742Z,52.70
2018-04-18T23:54:34.359Z,52.70
2018-04-18T23:57:02.751Z,52.80
2018-04-18T23:59:30.385Z,52.80
